sensor_id;sensor_type;location;lat;lon;timestamp;P1;durP1;ratioP1;P2;durP2;ratioP2
80910;SDS011;70359;51.420;7.032;2024-03-08T00:01:17;9.2;;;6.8;;
80910;SDS011;70359;51.420;7.032;2024-03-08T00:03:43;6;;;5.1;;
80910;SDS011;70359;51.420;7.032;2024-03-08T00:06:12;6;;;5.1;;
80910;SDS011;70359;51.420;7.032;2024-03-08T00:08:33;6.7;;;5.4;;
80910;SDS011;70359;51.420;7.032;2024-03-08T00:10:58;6.7;;;5.4;;
80910;SDS011;70359;51.420;7.032;2024-03-08T00:13:23;7.3;;;6;;
80910;SDS011;70359;51.420;7.032;2024-03-08T00:15:48;7.3;;;6;;
80910;SDS011;70359;51.420;7.032;2024-03-08T00:18:14;9.7;;;6;;
80910;SDS011;70359;51.420;7.032;2024-03-08T00:20:38;9.7;;;6;;
80910;SDS011;70359;51.420;7.032;2024-03-08T00:23:07;9.7;;;6;;
80910;SDS011;70359;51.420;7.032;2024-03-08T00:25:28;6.5;;;5.9;;
80910;SDS011;70359;51.420;7.032;2024-03-08T00:27:57;6.5;;;5.9;;
80910;SDS011;70359;51.420;7.032;2024-03-08T00:30:22;8.2;;;6.6;;
80910;SDS011;70359;51.420;7.032;2024-03-08T00:32:43;8.2;;;6.6;;
80910;SDS011;70359;51.420;7.032;2024-03-08T00:35:08;7.1;;;6.4;;
80910;SDS011;70359;51.420;7.032;2024-03-08T00:37:33;7.1;;;6.4;;
80910;SDS011;70359;51.420;7.032;2024-03-08T00:39:58;8.6;;;5.9;;
80910;SDS011;70359;51.420;7.032;2024-03-08T00:42:23;8.6;;;5.9;;
80910;SDS011;70359;51.420;7.032;2024-03-08T00:44:48;6.7;;;6;;
80910;SDS011;70359;51.420;7.032;2024-03-08T00:47:13;6.7;;;6;;
80910;SDS011;70359;51.420;7.032;2024-03-08T00:49:38;6;;;5.4;;
80910;SDS011;70359;51.420;7.032;2024-03-08T00:52:03;6;;;5.4;;
80910;SDS011;70359;51.420;7.032;2024-03-08T00:54:32;8.4;;;6.5;;
80910;SDS011;70359;51.420;7.032;2024-03-08T00:56:53;8.4;;;6.5;;
80910;SDS011;70359;51.420;7.032;2024-03-08T00:59:22;7.9;;;6.7;;
80910;SDS011;70359;51.420;7.032;2024-03-08T01:01:43;7.9;;;6.7;;
80910;SDS011;70359;51.420;7.032;2024-03-08T01:04:12;10.1;;;7.2;;
80910;SDS011;70359;51.420;7.032;2024-03-08T01:06:33;10.1;;;7.2;;
80910;SDS011;70359;51.420;7.032;2024-03-08T01:08:58;7.5;;;6.8;;
80910;SDS011;70359;51.420;7.032;2024-03-08T01:11:27;7.5;;;6.8;;
80910;SDS011;70359;51.420;7.032;2024-03-08T01:13:48;8;;;6.9;;
80910;SDS011;70359;51.420;7.032;2024-03-08T01:16:13;8;;;6.9;;
80910;SDS011;70359;51.420;7.032;2024-03-08T01:18:42;7.1;;;6.5;;
80910;SDS011;70359;51.420;7.032;2024-03-08T01:21:03;7.1;;;6.5;;
80910;SDS011;70359;51.420;7.032;2024-03-08T01:23:28;12.1;;;7.7;;
80910;SDS011;70359;51.420;7.032;2024-03-08T01:25:53;12.1;;;7.7;;
80910;SDS011;70359;51.420;7.032;2024-03-08T01:28:18;7.9;;;6.7;;
80910;SDS011;70359;51.420;7.032;2024-03-08T01:30:43;7.9;;;6.7;;
80910;SDS011;70359;51.420;7.032;2024-03-08T01:33:12;7.9;;;6.7;;
80910;SDS011;70359;51.420;7.032;2024-03-08T01:35:37;7.6;;;5.9;;
80910;SDS011;70359;51.420;7.032;2024-03-08T01:37:58;7.6;;;5.9;;
80910;SDS011;70359;51.420;7.032;2024-03-08T01:40:23;8.3;;;6.5;;
80910;SDS011;70359;51.420;7.032;2024-03-08T01:42:48;8.3;;;6.5;;
80910;SDS011;70359;51.420;7.032;2024-03-08T01:45:17;9.8;;;6.8;;
80910;SDS011;70359;51.420;7.032;2024-03-08T01:47:38;9.8;;;6.8;;
80910;SDS011;70359;51.420;7.032;2024-03-08T01:50:04;9.2;;;7.2;;
80910;SDS011;70359;51.420;7.032;2024-03-08T01:52:28;9.2;;;7.2;;
80910;SDS011;70359;51.420;7.032;2024-03-08T01:54:53;10.5;;;7.6;;
80910;SDS011;70359;51.420;7.032;2024-03-08T01:57:18;10.5;;;7.6;;
80910;SDS011;70359;51.420;7.032;2024-03-08T01:59:43;8.7;;;6.8;;
80910;SDS011;70359;51.420;7.032;2024-03-08T02:02:08;8.7;;;6.8;;
80910;SDS011;70359;51.420;7.032;2024-03-08T02:04:33;9.1;;;7;;
80910;SDS011;70359;51.420;7.032;2024-03-08T02:06:58;9.1;;;7;;
80910;SDS011;70359;51.420;7.032;2024-03-08T02:09:23;7.1;;;6.1;;
80910;SDS011;70359;51.420;7.032;2024-03-08T02:11:48;7.1;;;6.1;;
80910;SDS011;70359;51.420;7.032;2024-03-08T02:14:13;7.9;;;7.1;;
80910;SDS011;70359;51.420;7.032;2024-03-08T02:16:42;7.9;;;7.1;;
80910;SDS011;70359;51.420;7.032;2024-03-08T02:19:03;11.9;;;6.9;;
80910;SDS011;70359;51.420;7.032;2024-03-08T02:21:28;11.9;;;6.9;;
80910;SDS011;70359;51.420;7.032;2024-03-08T02:23:53;9.1;;;7.1;;
80910;SDS011;70359;51.420;7.032;2024-03-08T02:26:18;9.1;;;7.1;;
80910;SDS011;70359;51.420;7.032;2024-03-08T02:28:43;7.7;;;6.9;;
80910;SDS011;70359;51.420;7.032;2024-03-08T02:31:08;7.7;;;6.9;;
80910;SDS011;70359;51.420;7.032;2024-03-08T02:33:33;7.6;;;6.9;;
80910;SDS011;70359;51.420;7.032;2024-03-08T02:36:02;7.6;;;6.9;;
80910;SDS011;70359;51.420;7.032;2024-03-08T02:38:23;8.9;;;7;;
80910;SDS011;70359;51.420;7.032;2024-03-08T02:40:49;8.9;;;7;;
80910;SDS011;70359;51.420;7.032;2024-03-08T02:43:14;9.9;;;7.7;;
80910;SDS011;70359;51.420;7.032;2024-03-08T02:45:38;9.9;;;7.7;;
80910;SDS011;70359;51.420;7.032;2024-03-08T02:48:03;9.9;;;7.7;;
80910;SDS011;70359;51.420;7.032;2024-03-08T02:50:28;9.6;;;7.6;;
80910;SDS011;70359;51.420;7.032;2024-03-08T02:52:53;9.6;;;7.6;;
80910;SDS011;70359;51.420;7.032;2024-03-08T02:55:18;8.8;;;7.7;;
80910;SDS011;70359;51.420;7.032;2024-03-08T02:57:43;8.8;;;7.7;;
80910;SDS011;70359;51.420;7.032;2024-03-08T03:00:09;12;;;7.2;;
80910;SDS011;70359;51.420;7.032;2024-03-08T03:02:33;12;;;7.2;;
80910;SDS011;70359;51.420;7.032;2024-03-08T03:04:58;8.1;;;7.3;;
80910;SDS011;70359;51.420;7.032;2024-03-08T03:07:23;8.1;;;7.3;;
80910;SDS011;70359;51.420;7.032;2024-03-08T03:09:52;7.9;;;7.1;;
80910;SDS011;70359;51.420;7.032;2024-03-08T03:12:17;7.9;;;7.1;;
80910;SDS011;70359;51.420;7.032;2024-03-08T03:14:38;7;;;6.4;;
80910;SDS011;70359;51.420;7.032;2024-03-08T03:17:03;7;;;6.4;;
80910;SDS011;70359;51.420;7.032;2024-03-08T03:19:28;8.3;;;6.9;;
80910;SDS011;70359;51.420;7.032;2024-03-08T03:21:53;8.3;;;6.9;;
80910;SDS011;70359;51.420;7.032;2024-03-08T03:24:18;9.4;;;6.6;;
80910;SDS011;70359;51.420;7.032;2024-03-08T03:26:43;9.4;;;6.6;;
80910;SDS011;70359;51.420;7.032;2024-03-08T03:29:08;11.7;;;7.6;;
80910;SDS011;70359;51.420;7.032;2024-03-08T03:31:33;11.7;;;7.6;;
80910;SDS011;70359;51.420;7.032;2024-03-08T03:33:58;7;;;6.3;;
80910;SDS011;70359;51.420;7.032;2024-03-08T03:36:23;7;;;6.3;;
80910;SDS011;70359;51.420;7.032;2024-03-08T03:38:48;12.1;;;7.8;;
80910;SDS011;70359;51.420;7.032;2024-03-08T03:41:13;12.1;;;7.8;;
80910;SDS011;70359;51.420;7.032;2024-03-08T03:43:38;8.6;;;6.8;;
80910;SDS011;70359;51.420;7.032;2024-03-08T03:46:05;8.6;;;6.8;;
80910;SDS011;70359;51.420;7.032;2024-03-08T03:48:28;7.4;;;6.7;;
80910;SDS011;70359;51.420;7.032;2024-03-08T03:50:53;7.4;;;6.7;;
80910;SDS011;70359;51.420;7.032;2024-03-08T03:53:22;9;;;7.4;;
80910;SDS011;70359;51.420;7.032;2024-03-08T03:55:47;9;;;7.4;;
80910;SDS011;70359;51.420;7.032;2024-03-08T03:58:09;8.4;;;7.2;;
80910;SDS011;70359;51.420;7.032;2024-03-08T04:00:37;8.4;;;7.2;;
80910;SDS011;70359;51.420;7.032;2024-03-08T04:02:58;8.4;;;7.2;;
80910;SDS011;70359;51.420;7.032;2024-03-08T04:05:27;9.1;;;7.7;;
80910;SDS011;70359;51.420;7.032;2024-03-08T04:07:52;9.1;;;7.7;;
80910;SDS011;70359;51.420;7.032;2024-03-08T04:10:13;10.3;;;8;;
80910;SDS011;70359;51.420;7.032;2024-03-08T04:12:42;10.3;;;8;;
80910;SDS011;70359;51.420;7.032;2024-03-08T04:15:04;8.4;;;7.1;;
80910;SDS011;70359;51.420;7.032;2024-03-08T04:17:28;8.4;;;7.1;;
80910;SDS011;70359;51.420;7.032;2024-03-08T04:19:53;8.5;;;7.7;;
80910;SDS011;70359;51.420;7.032;2024-03-08T04:22:18;8.5;;;7.7;;
80910;SDS011;70359;51.420;7.032;2024-03-08T04:24:43;9;;;7.8;;
80910;SDS011;70359;51.420;7.032;2024-03-08T04:27:08;9;;;7.8;;
80910;SDS011;70359;51.420;7.032;2024-03-08T04:29:37;10.4;;;7.6;;
80910;SDS011;70359;51.420;7.032;2024-03-08T04:31:58;10.4;;;7.6;;
80910;SDS011;70359;51.420;7.032;2024-03-08T04:34:23;8.8;;;7.9;;
80910;SDS011;70359;51.420;7.032;2024-03-08T04:36:48;8.8;;;7.9;;
80910;SDS011;70359;51.420;7.032;2024-03-08T04:39:13;8.6;;;7.2;;
80910;SDS011;70359;51.420;7.032;2024-03-08T04:41:42;8.6;;;7.2;;
80910;SDS011;70359;51.420;7.032;2024-03-08T04:44:03;9.9;;;8.1;;
80910;SDS011;70359;51.420;7.032;2024-03-08T04:46:28;9.9;;;8.1;;
80910;SDS011;70359;51.420;7.032;2024-03-08T04:48:57;9.3;;;8.3;;
80910;SDS011;70359;51.420;7.032;2024-03-08T04:51:22;9.3;;;8.3;;
80910;SDS011;70359;51.420;7.032;2024-03-08T04:53:43;9.6;;;8.5;;
80910;SDS011;70359;51.420;7.032;2024-03-08T04:56:08;9.6;;;8.5;;
80910;SDS011;70359;51.420;7.032;2024-03-08T04:58:35;8.3;;;7.5;;
80910;SDS011;70359;51.420;7.032;2024-03-08T05:00:58;8.3;;;7.5;;
80910;SDS011;70359;51.420;7.032;2024-03-08T05:03:23;8.8;;;8;;
80910;SDS011;70359;51.420;7.032;2024-03-08T05:05:48;8.8;;;8;;
80910;SDS011;70359;51.420;7.032;2024-03-08T05:08:13;10.1;;;6.9;;
80910;SDS011;70359;51.420;7.032;2024-03-08T05:10:38;10.1;;;6.9;;
80910;SDS011;70359;51.420;7.032;2024-03-08T05:13:07;10.1;;;6.9;;
80910;SDS011;70359;51.420;7.032;2024-03-08T05:15:28;11.4;;;8.1;;
80910;SDS011;70359;51.420;7.032;2024-03-08T05:17:57;11.4;;;8.1;;
80910;SDS011;70359;51.420;7.032;2024-03-08T05:20:18;9.4;;;7.9;;
80910;SDS011;70359;51.420;7.032;2024-03-08T05:22:47;9.4;;;7.9;;
80910;SDS011;70359;51.420;7.032;2024-03-08T05:25:08;13.7;;;8.3;;
80910;SDS011;70359;51.420;7.032;2024-03-08T05:27:33;13.7;;;8.3;;
80910;SDS011;70359;51.420;7.032;2024-03-08T05:29:58;9;;;7.8;;
80910;SDS011;70359;51.420;7.032;2024-03-08T05:32:27;9;;;7.8;;
80910;SDS011;70359;51.420;7.032;2024-03-08T05:34:48;7.9;;;7.1;;
80910;SDS011;70359;51.420;7.032;2024-03-08T05:37:13;7.9;;;7.1;;
80910;SDS011;70359;51.420;7.032;2024-03-08T05:39:38;8;;;6.9;;
80910;SDS011;70359;51.420;7.032;2024-03-08T05:42:04;8;;;6.9;;
80910;SDS011;70359;51.420;7.032;2024-03-08T05:44:28;10.4;;;8.6;;
80910;SDS011;70359;51.420;7.032;2024-03-08T05:46:57;10.4;;;8.6;;
80910;SDS011;70359;51.420;7.032;2024-03-08T05:49:18;8.7;;;7.1;;
80910;SDS011;70359;51.420;7.032;2024-03-08T05:51:47;8.7;;;7.1;;
80910;SDS011;70359;51.420;7.032;2024-03-08T05:54:12;11.3;;;7.8;;
80910;SDS011;70359;51.420;7.032;2024-03-08T05:56:33;11.3;;;7.8;;
80910;SDS011;70359;51.420;7.032;2024-03-08T05:58:58;12.5;;;9.1;;
80910;SDS011;70359;51.420;7.032;2024-03-08T06:01:23;12.5;;;9.1;;
80910;SDS011;70359;51.420;7.032;2024-03-08T06:03:48;11.3;;;8.7;;
80910;SDS011;70359;51.420;7.032;2024-03-08T06:06:13;11.3;;;8.7;;
80910;SDS011;70359;51.420;7.032;2024-03-08T06:08:38;15.9;;;8.7;;
80910;SDS011;70359;51.420;7.032;2024-03-08T06:11:03;15.9;;;8.7;;
80910;SDS011;70359;51.420;7.032;2024-03-08T06:13:28;16.8;;;8.8;;
80910;SDS011;70359;51.420;7.032;2024-03-08T06:15:53;16.8;;;8.8;;
80910;SDS011;70359;51.420;7.032;2024-03-08T06:18:18;15.2;;;8.9;;
80910;SDS011;70359;51.420;7.032;2024-03-08T06:20:47;15.2;;;8.9;;
80910;SDS011;70359;51.420;7.032;2024-03-08T06:23:12;11.3;;;8.5;;
80910;SDS011;70359;51.420;7.032;2024-03-08T06:25:33;11.3;;;8.5;;
80910;SDS011;70359;51.420;7.032;2024-03-08T06:27:58;11.3;;;8.5;;
80910;SDS011;70359;51.420;7.032;2024-03-08T06:30:27;11;;;7.6;;
80910;SDS011;70359;51.420;7.032;2024-03-08T06:32:48;11;;;7.6;;
80910;SDS011;70359;51.420;7.032;2024-03-08T06:35:13;10;;;8.3;;
80910;SDS011;70359;51.420;7.032;2024-03-08T06:37:42;10;;;8.3;;
80910;SDS011;70359;51.420;7.032;2024-03-08T06:40:04;10.6;;;8.9;;
80910;SDS011;70359;51.420;7.032;2024-03-08T06:42:28;10.6;;;8.9;;
80910;SDS011;70359;51.420;7.032;2024-03-08T06:44:53;10;;;8.9;;
80910;SDS011;70359;51.420;7.032;2024-03-08T06:47:18;10;;;8.9;;
80910;SDS011;70359;51.420;7.032;2024-03-08T06:49:43;10.6;;;8;;
80910;SDS011;70359;51.420;7.032;2024-03-08T06:52:09;10.6;;;8;;
80910;SDS011;70359;51.420;7.032;2024-03-08T06:54:33;12;;;9.2;;
80910;SDS011;70359;51.420;7.032;2024-03-08T06:56:58;12;;;9.2;;
80910;SDS011;70359;51.420;7.032;2024-03-08T06:59:23;11.1;;;7.9;;
80910;SDS011;70359;51.420;7.032;2024-03-08T07:01:48;11.1;;;7.9;;
80910;SDS011;70359;51.420;7.032;2024-03-08T07:04:13;11.9;;;8.8;;
80910;SDS011;70359;51.420;7.032;2024-03-08T07:06:38;11.9;;;8.8;;
80910;SDS011;70359;51.420;7.032;2024-03-08T07:09:03;12.3;;;9.1;;
80910;SDS011;70359;51.420;7.032;2024-03-08T07:11:28;12.3;;;9.1;;
80910;SDS011;70359;51.420;7.032;2024-03-08T07:13:53;13.1;;;8.9;;
80910;SDS011;70359;51.420;7.032;2024-03-08T07:16:18;13.1;;;8.9;;
80910;SDS011;70359;51.420;7.032;2024-03-08T07:18:43;11.4;;;9.6;;
80910;SDS011;70359;51.420;7.032;2024-03-08T07:21:08;11.4;;;9.6;;
80910;SDS011;70359;51.420;7.032;2024-03-08T07:23:33;9.6;;;8.3;;
80910;SDS011;70359;51.420;7.032;2024-03-08T07:25:58;9.6;;;8.3;;
80910;SDS011;70359;51.420;7.032;2024-03-08T07:28:23;12.1;;;9.1;;
80910;SDS011;70359;51.420;7.032;2024-03-08T07:30:52;12.1;;;9.1;;
80910;SDS011;70359;51.420;7.032;2024-03-08T07:33:13;12.3;;;8.9;;
80910;SDS011;70359;51.420;7.032;2024-03-08T07:35:38;12.3;;;8.9;;
80910;SDS011;70359;51.420;7.032;2024-03-08T07:38:03;15.3;;;9.1;;
80910;SDS011;70359;51.420;7.032;2024-03-08T07:40:28;15.3;;;9.1;;
80910;SDS011;70359;51.420;7.032;2024-03-08T07:42:57;15.3;;;9.1;;
80910;SDS011;70359;51.420;7.032;2024-03-08T07:45:18;11.1;;;8.4;;
80910;SDS011;70359;51.420;7.032;2024-03-08T07:47:43;11.1;;;8.4;;
80910;SDS011;70359;51.420;7.032;2024-03-08T07:50:09;9.7;;;8.7;;
80910;SDS011;70359;51.420;7.032;2024-03-08T07:52:33;9.7;;;8.7;;
80910;SDS011;70359;51.420;7.032;2024-03-08T07:54:58;11;;;8;;
80910;SDS011;70359;51.420;7.032;2024-03-08T07:57:23;11;;;8;;
80910;SDS011;70359;51.420;7.032;2024-03-08T07:59:48;12.3;;;9.2;;
80910;SDS011;70359;51.420;7.032;2024-03-08T08:02:13;12.3;;;9.2;;
80910;SDS011;70359;51.420;7.032;2024-03-08T08:04:38;9.6;;;7.7;;
80910;SDS011;70359;51.420;7.032;2024-03-08T08:07:04;9.6;;;7.7;;
80910;SDS011;70359;51.420;7.032;2024-03-08T08:09:32;12.8;;;8.5;;
80910;SDS011;70359;51.420;7.032;2024-03-08T08:11:54;12.8;;;8.5;;
80910;SDS011;70359;51.420;7.032;2024-03-08T08:14:19;10;;;8.9;;
80910;SDS011;70359;51.420;7.032;2024-03-08T08:16:44;10;;;8.9;;
80910;SDS011;70359;51.420;7.032;2024-03-08T08:19:12;11.2;;;9.4;;
80910;SDS011;70359;51.420;7.032;2024-03-08T08:21:33;11.2;;;9.4;;
80910;SDS011;70359;51.420;7.032;2024-03-08T08:23:58;9.3;;;8.3;;
80910;SDS011;70359;51.420;7.032;2024-03-08T08:26:24;9.3;;;8.3;;
80910;SDS011;70359;51.420;7.032;2024-03-08T08:28:49;12.7;;;8.4;;
80910;SDS011;70359;51.420;7.032;2024-03-08T08:31:14;12.7;;;8.4;;
80910;SDS011;70359;51.420;7.032;2024-03-08T08:33:39;13.3;;;8.5;;
80910;SDS011;70359;51.420;7.032;2024-03-08T08:36:04;13.3;;;8.5;;
80910;SDS011;70359;51.420;7.032;2024-03-08T08:38:29;12.7;;;8.3;;
80910;SDS011;70359;51.420;7.032;2024-03-08T08:40:57;12.7;;;8.3;;
80910;SDS011;70359;51.420;7.032;2024-03-08T08:43:22;16.6;;;9.5;;
80910;SDS011;70359;51.420;7.032;2024-03-08T08:45:44;16.6;;;9.5;;
80910;SDS011;70359;51.420;7.032;2024-03-08T08:48:09;9.2;;;8.2;;
80910;SDS011;70359;51.420;7.032;2024-03-08T08:50:34;9.2;;;8.2;;
80910;SDS011;70359;51.420;7.032;2024-03-08T08:53:05;9.5;;;7.8;;
80910;SDS011;70359;51.420;7.032;2024-03-08T08:55:24;9.5;;;7.8;;
80910;SDS011;70359;51.420;7.032;2024-03-08T08:57:53;9.5;;;7.8;;
80910;SDS011;70359;51.420;7.032;2024-03-08T09:00:14;10.4;;;7.9;;
80910;SDS011;70359;51.420;7.032;2024-03-08T09:02:39;10.4;;;7.9;;
80910;SDS011;70359;51.420;7.032;2024-03-08T09:05:04;13.4;;;8.3;;
80910;SDS011;70359;51.420;7.032;2024-03-08T09:07:29;13.4;;;8.3;;
80910;SDS011;70359;51.420;7.032;2024-03-08T09:09:54;12.3;;;7.8;;
80910;SDS011;70359;51.420;7.032;2024-03-08T09:12:23;12.3;;;7.8;;
80910;SDS011;70359;51.420;7.032;2024-03-08T09:14:44;8.8;;;7.5;;
80910;SDS011;70359;51.420;7.032;2024-03-08T09:17:09;8.8;;;7.5;;
80910;SDS011;70359;51.420;7.032;2024-03-08T09:19:34;10.9;;;8.4;;
80910;SDS011;70359;51.420;7.032;2024-03-08T09:22:03;10.9;;;8.4;;
80910;SDS011;70359;51.420;7.032;2024-03-08T09:24:24;19.2;;;7.8;;
80910;SDS011;70359;51.420;7.032;2024-03-08T09:26:49;19.2;;;7.8;;
80910;SDS011;70359;51.420;7.032;2024-03-08T09:29:14;11.3;;;7.6;;
80910;SDS011;70359;51.420;7.032;2024-03-08T09:31:39;11.3;;;7.6;;
80910;SDS011;70359;51.420;7.032;2024-03-08T09:34:04;7.7;;;6.6;;
80910;SDS011;70359;51.420;7.032;2024-03-08T09:36:29;7.7;;;6.6;;
80910;SDS011;70359;51.420;7.032;2024-03-08T09:38:54;10.7;;;8.1;;
80910;SDS011;70359;51.420;7.032;2024-03-08T09:41:19;10.7;;;8.1;;
80910;SDS011;70359;51.420;7.032;2024-03-08T09:43:44;8.5;;;6.5;;
80910;SDS011;70359;51.420;7.032;2024-03-08T09:46:09;8.5;;;6.5;;
80910;SDS011;70359;51.420;7.032;2024-03-08T09:48:34;8.3;;;7.2;;
80910;SDS011;70359;51.420;7.032;2024-03-08T09:50:59;8.3;;;7.2;;
80910;SDS011;70359;51.420;7.032;2024-03-08T09:53:28;9.7;;;7.3;;
80910;SDS011;70359;51.420;7.032;2024-03-08T09:55:50;9.7;;;7.3;;
80910;SDS011;70359;51.420;7.032;2024-03-08T09:58:15;7.5;;;6.7;;
80910;SDS011;70359;51.420;7.032;2024-03-08T10:00:39;7.5;;;6.7;;
80910;SDS011;70359;51.420;7.032;2024-03-08T10:03:04;8;;;7.1;;
80910;SDS011;70359;51.420;7.032;2024-03-08T10:05:30;8;;;7.1;;
80910;SDS011;70359;51.420;7.032;2024-03-08T10:07:54;8;;;7.1;;
80910;SDS011;70359;51.420;7.032;2024-03-08T10:10:19;8;;;7.2;;
80910;SDS011;70359;51.420;7.032;2024-03-08T10:12:44;8;;;7.2;;
80910;SDS011;70359;51.420;7.032;2024-03-08T10:15:09;9.1;;;7.3;;
80910;SDS011;70359;51.420;7.032;2024-03-08T10:17:34;9.1;;;7.3;;
80910;SDS011;70359;51.420;7.032;2024-03-08T10:19:59;8.4;;;6.8;;
80910;SDS011;70359;51.420;7.032;2024-03-08T10:22:25;8.4;;;6.8;;
80910;SDS011;70359;51.420;7.032;2024-03-08T10:24:49;9.1;;;7.2;;
80910;SDS011;70359;51.420;7.032;2024-03-08T10:27:16;9.1;;;7.2;;
80910;SDS011;70359;51.420;7.032;2024-03-08T10:29:39;12.2;;;7.5;;
80910;SDS011;70359;51.420;7.032;2024-03-08T10:32:04;12.2;;;7.5;;
80910;SDS011;70359;51.420;7.032;2024-03-08T10:34:29;9.3;;;6.7;;
80910;SDS011;70359;51.420;7.032;2024-03-08T10:37:03;9.3;;;6.7;;
80910;SDS011;70359;51.420;7.032;2024-03-08T10:39:22;7.5;;;6.8;;
80910;SDS011;70359;51.420;7.032;2024-03-08T10:41:50;7.5;;;6.8;;
80910;SDS011;70359;51.420;7.032;2024-03-08T10:44:19;8.3;;;6.4;;
80910;SDS011;70359;51.420;7.032;2024-03-08T10:46:41;8.3;;;6.4;;
80910;SDS011;70359;51.420;7.032;2024-03-08T10:49:00;8;;;6.6;;
80910;SDS011;70359;51.420;7.032;2024-03-08T10:51:24;8;;;6.6;;
80910;SDS011;70359;51.420;7.032;2024-03-08T10:53:50;10.3;;;7.2;;
80910;SDS011;70359;51.420;7.032;2024-03-08T10:56:14;10.3;;;7.2;;
80910;SDS011;70359;51.420;7.032;2024-03-08T10:58:39;6.8;;;6.1;;
80910;SDS011;70359;51.420;7.032;2024-03-08T11:01:04;6.8;;;6.1;;
80910;SDS011;70359;51.420;7.032;2024-03-08T11:03:53;8;;;6.9;;
80910;SDS011;70359;51.420;7.032;2024-03-08T11:05:54;8;;;6.9;;
80910;SDS011;70359;51.420;7.032;2024-03-08T11:08:20;9.6;;;7;;
80910;SDS011;70359;51.420;7.032;2024-03-08T11:10:50;9.6;;;7;;
80910;SDS011;70359;51.420;7.032;2024-03-08T11:13:39;6.7;;;5.9;;
80910;SDS011;70359;51.420;7.032;2024-03-08T11:15:38;6.7;;;5.9;;
80910;SDS011;70359;51.420;7.032;2024-03-08T11:18:02;8.7;;;7.1;;
80910;SDS011;70359;51.420;7.032;2024-03-08T11:20:24;8.7;;;7.1;;
80910;SDS011;70359;51.420;7.032;2024-03-08T11:22:53;8.7;;;7.1;;
80910;SDS011;70359;51.420;7.032;2024-03-08T11:25:35;9.9;;;7.3;;
80910;SDS011;70359;51.420;7.032;2024-03-08T11:27:58;9.9;;;7.3;;
80910;SDS011;70359;51.420;7.032;2024-03-08T11:30:05;10.1;;;8.1;;
80910;SDS011;70359;51.420;7.032;2024-03-08T11:32:31;10.1;;;8.1;;
80910;SDS011;70359;51.420;7.032;2024-03-08T11:34:54;8.5;;;7.6;;
80910;SDS011;70359;51.420;7.032;2024-03-08T11:37:20;8.5;;;7.6;;
80910;SDS011;70359;51.420;7.032;2024-03-08T11:39:46;14.1;;;9.4;;
80910;SDS011;70359;51.420;7.032;2024-03-08T11:42:09;14.1;;;9.4;;
80910;SDS011;70359;51.420;7.032;2024-03-08T11:44:38;12.3;;;8.5;;
80910;SDS011;70359;51.420;7.032;2024-03-08T11:46:59;12.3;;;8.5;;
80910;SDS011;70359;51.420;7.032;2024-03-08T11:49:24;8.5;;;7.6;;
80910;SDS011;70359;51.420;7.032;2024-03-08T11:51:51;8.5;;;7.6;;
80910;SDS011;70359;51.420;7.032;2024-03-08T11:54:14;9.4;;;7.7;;
80910;SDS011;70359;51.420;7.032;2024-03-08T11:56:39;9.4;;;7.7;;
80910;SDS011;70359;51.420;7.032;2024-03-08T11:59:04;8.7;;;7.4;;
80910;SDS011;70359;51.420;7.032;2024-03-08T12:01:33;8.7;;;7.4;;
80910;SDS011;70359;51.420;7.032;2024-03-08T12:03:56;8.4;;;7.5;;
80910;SDS011;70359;51.420;7.032;2024-03-08T12:06:19;8.4;;;7.5;;
80910;SDS011;70359;51.420;7.032;2024-03-08T12:08:49;9.8;;;7.2;;
80910;SDS011;70359;51.420;7.032;2024-03-08T12:11:09;9.8;;;7.2;;
80910;SDS011;70359;51.420;7.032;2024-03-08T12:13:34;8.4;;;7.6;;
80910;SDS011;70359;51.420;7.032;2024-03-08T12:16:00;8.4;;;7.6;;
80910;SDS011;70359;51.420;7.032;2024-03-08T12:18:24;8.5;;;7.1;;
80910;SDS011;70359;51.420;7.032;2024-03-08T12:20:49;8.5;;;7.1;;
80910;SDS011;70359;51.420;7.032;2024-03-08T12:23:17;7.4;;;6.2;;
80910;SDS011;70359;51.420;7.032;2024-03-08T12:25:39;7.4;;;6.2;;
80910;SDS011;70359;51.420;7.032;2024-03-08T12:28:11;6.5;;;5.1;;
80910;SDS011;70359;51.420;7.032;2024-03-08T12:30:35;6.5;;;5.1;;
80910;SDS011;70359;51.420;7.032;2024-03-08T12:32:58;6.5;;;5.1;;
80910;SDS011;70359;51.420;7.032;2024-03-08T12:35:19;7.8;;;5.5;;
80910;SDS011;70359;51.420;7.032;2024-03-08T12:37:48;7.8;;;5.5;;
80910;SDS011;70359;51.420;7.032;2024-03-08T12:40:10;8.3;;;4.8;;
80910;SDS011;70359;51.420;7.032;2024-03-08T12:42:38;8.3;;;4.8;;
80910;SDS011;70359;51.420;7.032;2024-03-08T12:44:59;6.5;;;4.3;;
80910;SDS011;70359;51.420;7.032;2024-03-08T12:47:24;6.5;;;4.3;;
80910;SDS011;70359;51.420;7.032;2024-03-08T12:49:49;7.4;;;4.5;;
80910;SDS011;70359;51.420;7.032;2024-03-08T12:52:14;7.4;;;4.5;;
80910;SDS011;70359;51.420;7.032;2024-03-08T12:54:39;4.8;;;4.2;;
80910;SDS011;70359;51.420;7.032;2024-03-08T12:57:04;4.8;;;4.2;;
80910;SDS011;70359;51.420;7.032;2024-03-08T12:59:29;4.7;;;4.1;;
80910;SDS011;70359;51.420;7.032;2024-03-08T13:01:54;4.7;;;4.1;;
80910;SDS011;70359;51.420;7.032;2024-03-08T13:04:19;4;;;3.6;;
80910;SDS011;70359;51.420;7.032;2024-03-08T13:06:48;4;;;3.6;;
80910;SDS011;70359;51.420;7.032;2024-03-08T13:09:13;3.4;;;3.1;;
80910;SDS011;70359;51.420;7.032;2024-03-08T13:11:38;3.4;;;3.1;;
80910;SDS011;70359;51.420;7.032;2024-03-08T13:14:03;5.2;;;4.6;;
80910;SDS011;70359;51.420;7.032;2024-03-08T13:16:24;5.2;;;4.6;;
80910;SDS011;70359;51.420;7.032;2024-03-08T13:18:53;4.9;;;3.4;;
80910;SDS011;70359;51.420;7.032;2024-03-08T13:21:15;4.9;;;3.4;;
80910;SDS011;70359;51.420;7.032;2024-03-08T13:23:40;4.5;;;3.7;;
80910;SDS011;70359;51.420;7.032;2024-03-08T13:26:04;4.5;;;3.7;;
80910;SDS011;70359;51.420;7.032;2024-03-08T13:28:29;5.9;;;3.5;;
80910;SDS011;70359;51.420;7.032;2024-03-08T13:30:54;5.9;;;3.5;;
80910;SDS011;70359;51.420;7.032;2024-03-08T13:33:19;5.5;;;3.3;;
80910;SDS011;70359;51.420;7.032;2024-03-08T13:35:44;5.5;;;3.3;;
80910;SDS011;70359;51.420;7.032;2024-03-08T13:38:09;4.2;;;3.2;;
80910;SDS011;70359;51.420;7.032;2024-03-08T13:40:38;4.2;;;3.2;;
80910;SDS011;70359;51.420;7.032;2024-03-08T13:43:03;4.2;;;3.2;;
80910;SDS011;70359;51.420;7.032;2024-03-08T13:45:28;3;;;2.8;;
80910;SDS011;70359;51.420;7.032;2024-03-08T13:47:49;3;;;2.8;;
80910;SDS011;70359;51.420;7.032;2024-03-08T13:50:15;3.5;;;3.1;;
80910;SDS011;70359;51.420;7.032;2024-03-08T13:52:39;3.5;;;3.1;;
80910;SDS011;70359;51.420;7.032;2024-03-08T13:55:05;3.5;;;3;;
80910;SDS011;70359;51.420;7.032;2024-03-08T13:57:29;3.5;;;3;;
80910;SDS011;70359;51.420;7.032;2024-03-08T13:59:54;4.7;;;3.1;;
80910;SDS011;70359;51.420;7.032;2024-03-08T14:02:19;4.7;;;3.1;;
80910;SDS011;70359;51.420;7.032;2024-03-08T14:04:45;3.4;;;3.1;;
80910;SDS011;70359;51.420;7.032;2024-03-08T14:07:09;3.4;;;3.1;;
80910;SDS011;70359;51.420;7.032;2024-03-08T14:09:38;4;;;3.6;;
80910;SDS011;70359;51.420;7.032;2024-03-08T14:11:59;4;;;3.6;;
80910;SDS011;70359;51.420;7.032;2024-03-08T14:14:24;3.5;;;3.2;;
80910;SDS011;70359;51.420;7.032;2024-03-08T14:16:49;3.5;;;3.2;;
80910;SDS011;70359;51.420;7.032;2024-03-08T14:19:14;3.4;;;3.1;;
80910;SDS011;70359;51.420;7.032;2024-03-08T14:21:43;3.4;;;3.1;;
80910;SDS011;70359;51.420;7.032;2024-03-08T14:24:09;5.4;;;3.1;;
80910;SDS011;70359;51.420;7.032;2024-03-08T14:26:29;5.4;;;3.1;;
80910;SDS011;70359;51.420;7.032;2024-03-08T14:28:54;3.8;;;3.3;;
80910;SDS011;70359;51.420;7.032;2024-03-08T14:31:19;3.8;;;3.3;;
80910;SDS011;70359;51.420;7.032;2024-03-08T14:33:44;3.6;;;3.3;;
80910;SDS011;70359;51.420;7.032;2024-03-08T14:36:09;3.6;;;3.3;;
80910;SDS011;70359;51.420;7.032;2024-03-08T14:38:34;4.2;;;3.5;;
80910;SDS011;70359;51.420;7.032;2024-03-08T14:40:59;4.2;;;3.5;;
80910;SDS011;70359;51.420;7.032;2024-03-08T14:43:24;4.4;;;3.5;;
80910;SDS011;70359;51.420;7.032;2024-03-08T14:45:49;4.4;;;3.5;;
80910;SDS011;70359;51.420;7.032;2024-03-08T14:48:14;3.7;;;3.4;;
80910;SDS011;70359;51.420;7.032;2024-03-08T14:50:39;3.7;;;3.4;;
80910;SDS011;70359;51.420;7.032;2024-03-08T14:53:04;5.9;;;3.4;;
80910;SDS011;70359;51.420;7.032;2024-03-08T14:55:29;5.9;;;3.4;;
80910;SDS011;70359;51.420;7.032;2024-03-08T14:57:54;5.9;;;3.4;;
80910;SDS011;70359;51.420;7.032;2024-03-08T15:00:20;3.8;;;3.5;;
80910;SDS011;70359;51.420;7.032;2024-03-08T15:02:44;3.8;;;3.5;;